createdAt,value
2023-04-02T00:00:10.330Z,99091.84
2023-04-02T00:02:55.177Z,99097.94
2023-04-02T00:05:24.704Z,99102.06
2023-04-02T00:07:54.070Z,99102.00
2023-04-02T00:10:32.846Z,99100.09
2023-04-02T00:13:05.056Z,99100.69
2023-04-02T00:15:32.450Z,99096.13
2023-04-02T00:18:00.436Z,99097.63
2023-04-02T00:20:29.098Z,99094.63
2023-04-02T00:22:55.742Z,99099.56
2023-04-02T00:25:22.911Z,99097.97
2023-04-02T00:27:49.770Z,99097.53
2023-04-02T00:30:16.371Z,99099.31
2023-04-02T00:32:43.140Z,99090.78
2023-04-02T00:35:29.318Z,99085.25
2023-04-02T00:37:56.798Z,99096.94
2023-04-02T00:40:29.508Z,99095.75
2023-04-02T00:42:59.947Z,99096.81
2023-04-02T00:45:31.264Z,99102.22
2023-04-02T00:48:00.266Z,99105.47
2023-04-02T00:50:41.399Z,99107.13
2023-04-02T00:53:18.168Z,99101.44
2023-04-02T00:55:45.232Z,99092.47
2023-04-02T00:58:33.676Z,99106.69
2023-04-02T01:01:03.834Z,99097.09
2023-04-02T01:03:36.404Z,99095.84
2023-04-02T01:06:17.861Z,99093.84
2023-04-02T01:08:49.257Z,99100.09
2023-04-02T01:11:50.497Z,99107.22
2023-04-02T01:14:38.165Z,99103.41
2023-04-02T01:17:20.794Z,99108.59
2023-04-02T01:19:50.501Z,99112.25
2023-04-02T01:22:26.277Z,99102.75
2023-04-02T01:24:57.608Z,99118.53
2023-04-02T01:27:35.192Z,99111.53
2023-04-02T01:30:04.446Z,99110.78
2023-04-02T01:32:31.695Z,99113.31
2023-04-02T01:34:58.700Z,99108.44
2023-04-02T01:37:47.060Z,99113.84
2023-04-02T01:40:28.686Z,99116.25
2023-04-02T01:43:20.234Z,99114.69
2023-04-02T01:45:47.489Z,99114.53
2023-04-02T01:48:25.738Z,99120.50
2023-04-02T01:50:56.531Z,99129.84
2023-04-02T01:53:27.166Z,99130.03
2023-04-02T01:55:59.973Z,99134.16
2023-04-02T01:58:29.298Z,99135.59
2023-04-02T02:01:16.375Z,99135.94
2023-04-02T02:03:44.962Z,99140.31
2023-04-02T02:06:15.400Z,99134.13
2023-04-02T02:08:53.312Z,99136.19
2023-04-02T02:11:26.082Z,99137.69
2023-04-02T02:14:01.544Z,99134.97
2023-04-02T02:16:30.227Z,99138.66
2023-04-02T02:19:01.928Z,99141.31
2023-04-02T02:21:43.982Z,99139.66
2023-04-02T02:24:19.606Z,99138.44
2023-04-02T02:26:51.534Z,99143.19
2023-04-02T02:29:21.239Z,99139.16
2023-04-02T02:31:53.949Z,99141.06
2023-04-02T02:34:28.020Z,99146.94
2023-04-02T02:37:28.887Z,99146.00
2023-04-02T02:39:59.472Z,99137.75
2023-04-02T02:42:32.817Z,99141.41
2023-04-02T02:45:02.469Z,99143.63
2023-04-02T02:47:33.270Z,99138.38
2023-04-02T02:50:04.650Z,99144.13
2023-04-02T02:52:35.650Z,99138.66
2023-04-02T02:55:13.454Z,99144.59
2023-04-02T02:57:47.552Z,99141.50
2023-04-02T03:00:16.322Z,99142.13
2023-04-02T03:02:44.756Z,99136.44
2023-04-02T03:05:21.590Z,99139.78
2023-04-02T03:07:50.805Z,99141.19
2023-04-02T03:10:21.351Z,99136.09
2023-04-02T03:13:05.308Z,99139.81
2023-04-02T03:15:48.360Z,99143.41
2023-04-02T03:18:36.583Z,99141.13
2023-04-02T03:21:21.376Z,99135.41
2023-04-02T03:23:59.810Z,99136.63
2023-04-02T03:27:07.042Z,99134.63
2023-04-02T03:29:38.199Z,99139.66
2023-04-02T03:32:20.896Z,99143.63
2023-04-02T03:34:55.143Z,99139.34
2023-04-02T03:37:49.947Z,99140.16
2023-04-02T03:40:25.882Z,99148.31
2023-04-02T03:43:04.071Z,99146.94
2023-04-02T03:45:42.197Z,99145.34
2023-04-02T03:48:33.377Z,99149.19
2023-04-02T03:51:00.574Z,99156.88
2023-04-02T03:53:28.824Z,99154.88
2023-04-02T03:55:57.389Z,99150.78
2023-04-02T03:58:42.932Z,99153.91
2023-04-02T04:01:29.071Z,99155.00
2023-04-02T04:04:04.791Z,99149.88
2023-04-02T04:06:36.392Z,99153.22
2023-04-02T04:09:10.741Z,99160.22
2023-04-02T04:11:45.941Z,99166.06
2023-04-02T04:14:27.633Z,99167.00
2023-04-02T04:17:05.235Z,99166.34
2023-04-02T04:19:55.179Z,99172.38
2023-04-02T04:22:27.055Z,99174.56
2023-04-02T04:24:55.109Z,99174.56
2023-04-02T04:27:44.133Z,99177.88
2023-04-02T04:30:22.416Z,99178.72
2023-04-02T04:32:56.146Z,99176.50
2023-04-02T04:35:29.890Z,99179.28
2023-04-02T04:38:20.227Z,99188.88
2023-04-02T04:40:55.826Z,99194.44
2023-04-02T04:43:42.518Z,99184.78
2023-04-02T04:46:39.073Z,99195.16
2023-04-02T04:49:14.030Z,99200.75
2023-04-02T04:51:48.130Z,99195.69
2023-04-02T04:54:16.615Z,99193.97
2023-04-02T04:57:00.248Z,99190.53
2023-04-02T04:59:48.926Z,99190.34
2023-04-02T05:02:25.025Z,99194.53
2023-04-02T05:04:53.093Z,99193.78
2023-04-02T05:07:29.546Z,99183.88
2023-04-02T05:09:56.102Z,99202.41
2023-04-02T05:12:35.666Z,99196.75
2023-04-02T05:15:11.318Z,99199.00
2023-04-02T05:17:54.071Z,99206.47
2023-04-02T05:20:29.761Z,99206.47
2023-04-02T05:23:04.940Z,99204.16
2023-04-02T05:25:33.017Z,99217.28
2023-04-02T05:28:07.194Z,99215.00
2023-04-02T05:30:45.907Z,99218.28
2023-04-02T05:33:31.326Z,99201.19
2023-04-02T05:36:10.980Z,99208.31
2023-04-02T05:38:40.337Z,99213.88
2023-04-02T05:41:21.532Z,99215.34
2023-04-02T05:43:49.998Z,99229.69
2023-04-02T05:46:21.398Z,99225.31
2023-04-02T05:48:54.680Z,99228.63
2023-04-02T05:51:42.578Z,99228.81
2023-04-02T05:54:25.716Z,99238.06
2023-04-02T05:57:00.506Z,99235.91
2023-04-02T05:59:38.492Z,99238.69
2023-04-02T06:02:05.253Z,99240.38
2023-04-02T06:04:56.741Z,99237.19
2023-04-02T06:07:29.793Z,99239.09
2023-04-02T06:10:05.558Z,99237.19
2023-04-02T06:12:53.962Z,99244.16
2023-04-02T06:15:23.095Z,99236.88
2023-04-02T06:17:58.460Z,99248.25
2023-04-02T06:20:25.751Z,99254.72
2023-04-02T06:23:14.849Z,99244.81
2023-04-02T06:26:05.847Z,99249.41
2023-04-02T06:28:40.924Z,99249.84
2023-04-02T06:31:38.298Z,99247.66
2023-04-02T06:34:09.068Z,99256.09
2023-04-02T06:36:35.753Z,99251.25
2023-04-02T06:39:08.348Z,99260.16
2023-04-02T06:41:35.032Z,99258.06
2023-04-02T06:44:12.252Z,99259.25
2023-04-02T06:46:52.563Z,99263.31
2023-04-02T06:49:21.806Z,99253.75
2023-04-02T06:51:52.587Z,99264.28
2023-04-02T06:54:19.666Z,99267.63
2023-04-02T06:56:49.926Z,99265.78
2023-04-02T06:59:17.277Z,99262.72
2023-04-02T07:01:52.507Z,99268.28
2023-04-02T07:04:20.821Z,99254.94
2023-04-02T07:06:48.116Z,99260.81
2023-04-02T07:09:14.780Z,99269.56
2023-04-02T07:11:41.367Z,99266.53
2023-04-02T07:14:11.356Z,99266.16
2023-04-02T07:16:38.008Z,99264.75
2023-04-02T07:19:05.158Z,99267.88
2023-04-02T07:21:31.967Z,99272.44
2023-04-02T07:23:58.758Z,99273.09
2023-04-02T07:26:27.352Z,99286.22
2023-04-02T07:28:55.802Z,99279.69
2023-04-02T07:31:27.880Z,99287.88
2023-04-02T07:33:57.204Z,99287.03
2023-04-02T07:36:24.489Z,99288.28
2023-04-02T07:38:51.169Z,99289.16
2023-04-02T07:41:18.505Z,99300.66
2023-04-02T07:43:45.745Z,99294.94
2023-04-02T07:46:13.505Z,99297.50
2023-04-02T07:48:40.141Z,99299.75
2023-04-02T07:51:18.650Z,99301.53
2023-04-02T07:53:45.395Z,99305.59
2023-04-02T07:56:14.731Z,99303.56
2023-04-02T07:58:41.447Z,99304.53
2023-04-02T08:01:16.824Z,99313.47
2023-04-02T08:03:43.569Z,99311.41
2023-04-02T08:06:10.307Z,99317.72
2023-04-02T08:08:36.925Z,99316.50
2023-04-02T08:11:03.591Z,99325.25
2023-04-02T08:13:30.228Z,99326.53
2023-04-02T08:15:58.873Z,99325.00
2023-04-02T08:18:25.877Z,99333.97
2023-04-02T08:20:52.714Z,99334.97
2023-04-02T08:23:19.724Z,99335.47
2023-04-02T08:25:46.435Z,99339.38
2023-04-02T08:28:13.611Z,99339.97
2023-04-02T08:30:40.844Z,99340.25
2023-04-02T08:33:07.594Z,99340.59
2023-04-02T08:35:34.783Z,99339.88
2023-04-02T08:38:01.716Z,99337.84
2023-04-02T08:40:37.270Z,99347.13
2023-04-02T08:43:29.194Z,99334.56
2023-04-02T08:46:07.519Z,99337.25
2023-04-02T08:51:07.868Z,99349.81
2023-04-02T08:53:37.886Z,99351.97
2023-04-02T08:56:29.382Z,99351.81
2023-04-02T08:59:03.813Z,99344.81
2023-04-02T09:01:48.877Z,99344.69
2023-04-02T09:04:20.177Z,99349.66
2023-04-02T09:06:48.957Z,99348.38
2023-04-02T09:09:16.984Z,99354.09
2023-04-02T09:11:59.320Z,99352.22
2023-04-02T09:14:50.353Z,99352.47
2023-04-02T09:17:20.896Z,99357.28
2023-04-02T09:20:00.769Z,99358.22
2023-04-02T09:22:30.213Z,99352.59
2023-04-02T09:25:02.188Z,99354.47
2023-04-02T09:27:32.154Z,99354.31
2023-04-02T09:30:01.670Z,99365.91
2023-04-02T09:32:40.128Z,99359.16
2023-04-02T09:35:28.202Z,99359.03
2023-04-02T09:38:10.104Z,99356.16
2023-04-02T09:41:02.800Z,99362.97
2023-04-02T09:43:32.729Z,99365.91
2023-04-02T09:46:05.223Z,99363.16
2023-04-02T09:48:36.073Z,99361.25
2023-04-02T09:51:15.615Z,99366.72
2023-04-02T09:53:43.187Z,99377.41
2023-04-02T09:56:20.581Z,99365.34
2023-04-02T09:59:07.406Z,99369.94
2023-04-02T10:01:39.284Z,99371.75
2023-04-02T10:04:27.052Z,99375.06
2023-04-02T10:06:53.842Z,99372.72
2023-04-02T10:09:31.979Z,99371.53
2023-04-02T10:12:00.492Z,99374.38
2023-04-02T10:14:33.372Z,99373.19
2023-04-02T10:17:14.400Z,99374.97
2023-04-02T10:19:47.736Z,99371.66
2023-04-02T10:22:22.104Z,99379.84
2023-04-02T10:24:49.853Z,99375.41
2023-04-02T10:27:37.740Z,99372.72
2023-04-02T10:30:13.441Z,99375.69
2023-04-02T10:32:59.838Z,99368.50
2023-04-02T10:35:39.042Z,99367.38
2023-04-02T10:38:33.785Z,99366.53
2023-04-02T10:41:11.631Z,99365.78
2023-04-02T10:43:47.198Z,99367.25
2023-04-02T10:46:20.056Z,99361.47
2023-04-02T10:49:27.517Z,99360.06
2023-04-02T10:52:20.103Z,99368.59
2023-04-02T10:54:55.467Z,99366.59
2023-04-02T10:57:35.667Z,99377.34
2023-04-02T11:00:08.099Z,99374.88
2023-04-02T11:02:43.305Z,99369.00
2023-04-02T11:05:28.467Z,99372.31
2023-04-02T11:08:20.505Z,99373.00
2023-04-02T11:11:10.066Z,99365.78
2023-04-02T11:13:43.032Z,99370.97
2023-04-02T11:16:12.838Z,99360.00
2023-04-02T11:18:39.482Z,99361.19
2023-04-02T11:21:50.993Z,99357.13
2023-04-02T11:24:30.262Z,99354.63
2023-04-02T11:27:12.150Z,99358.25
2023-04-02T11:29:47.988Z,99348.56
2023-04-02T11:32:20.639Z,99347.28
2023-04-02T11:34:56.340Z,99356.84
2023-04-02T11:37:42.110Z,99341.53
2023-04-02T11:40:11.839Z,99336.09
2023-04-02T11:42:49.634Z,99345.00
2023-04-02T11:45:22.535Z,99346.50
2023-04-02T11:48:01.589Z,99347.84
2023-04-02T11:50:34.565Z,99347.22
2023-04-02T11:53:22.104Z,99345.47
2023-04-02T11:55:57.751Z,99344.50
2023-04-02T11:59:01.039Z,99354.84
2023-04-02T12:01:53.892Z,99348.28
2023-04-02T12:04:40.618Z,99350.19
2023-04-02T12:07:19.177Z,99349.56
2023-04-02T12:09:48.746Z,99338.09
2023-04-02T12:12:24.807Z,99338.91
2023-04-02T12:14:54.042Z,99328.69
2023-04-02T12:17:40.124Z,99334.56
2023-04-02T12:20:06.807Z,99341.03
2023-04-02T12:22:36.197Z,99338.09
2023-04-02T12:25:23.503Z,99336.16
2023-04-02T12:28:11.113Z,99340.97
2023-04-02T12:30:38.882Z,99334.03
2023-04-02T12:33:40.958Z,99320.34
2023-04-02T12:36:13.747Z,99323.88
2023-04-02T12:38:45.579Z,99318.44
2023-04-02T12:41:32.252Z,99314.38
2023-04-02T12:44:07.414Z,99313.75
2023-04-02T12:46:35.713Z,99309.34
2023-04-02T12:49:37.018Z,99313.69
2023-04-02T12:52:07.861Z,99306.66
2023-04-02T12:54:57.951Z,99306.53
2023-04-02T12:57:27.670Z,99302.69
2023-04-02T12:59:59.546Z,99303.69
2023-04-02T13:02:31.633Z,99309.47
2023-04-02T13:05:00.570Z,99305.09
2023-04-02T13:07:30.519Z,99313.66
2023-04-02T13:10:00.406Z,99307.75
2023-04-02T13:12:26.945Z,99317.69
2023-04-02T13:14:59.018Z,99312.59
2023-04-02T13:17:42.745Z,99316.38
2023-04-02T13:20:33.898Z,99310.44
2023-04-02T13:23:22.413Z,99310.03
2023-04-02T13:25:49.097Z,99316.47
2023-04-02T13:28:15.836Z,99315.81
2023-04-02T13:30:42.560Z,99317.47
2023-04-02T13:33:09.389Z,99311.53
2023-04-02T13:35:36.435Z,99317.91
2023-04-02T13:38:03.121Z,99323.13
2023-04-02T13:40:29.851Z,99311.66
2023-04-02T13:42:56.610Z,99322.44
2023-04-02T13:45:36.877Z,99313.84
2023-04-02T13:48:04.425Z,99323.88
2023-04-02T13:50:33.491Z,99325.22
2023-04-02T13:53:07.169Z,99325.41
2023-04-02T13:55:40.601Z,99325.94
2023-04-02T13:58:07.553Z,99321.41
2023-04-02T14:00:37.093Z,99323.22
2023-04-02T14:03:10.082Z,99317.91
2023-04-02T14:05:37.050Z,99320.81
2023-04-02T14:08:34.785Z,99323.06
2023-04-02T14:11:14.384Z,99315.88
2023-04-02T14:13:46.801Z,99322.59
2023-04-02T14:17:01.526Z,99322.69
2023-04-02T14:19:38.641Z,99328.94
2023-04-02T14:22:08.349Z,99325.44
2023-04-02T14:25:00.053Z,99324.06
2023-04-02T14:27:40.308Z,99322.06
2023-04-02T14:30:22.457Z,99320.38
2023-04-02T14:33:05.399Z,99325.41
2023-04-02T14:35:45.240Z,99329.47
2023-04-02T14:38:30.116Z,99323.97
2023-04-02T14:41:19.606Z,99325.06
2023-04-02T14:44:01.243Z,99334.81
2023-04-02T14:46:29.540Z,99337.63
2023-04-02T14:49:01.471Z,99336.16
2023-04-02T14:51:40.028Z,99337.44
2023-04-02T14:54:12.607Z,99352.41
2023-04-02T14:56:51.047Z,99366.78
2023-04-02T14:59:40.140Z,99352.16
2023-04-02T15:02:20.762Z,99369.59
2023-04-02T15:04:57.480Z,99369.84
2023-04-02T15:07:32.677Z,99380.88
2023-04-02T15:10:07.761Z,99398.41
2023-04-02T15:12:37.197Z,99398.31
2023-04-02T15:15:39.093Z,99409.97
2023-04-02T15:18:12.535Z,99406.63
2023-04-02T15:20:45.422Z,99424.19
2023-04-02T15:23:33.351Z,99433.66
2023-04-02T15:26:19.788Z,99430.41
2023-04-02T15:28:51.916Z,99431.81
2023-04-02T15:31:23.183Z,99441.44
2023-04-02T15:33:58.487Z,99452.56
2023-04-02T15:36:40.329Z,99458.09
2023-04-02T15:39:29.666Z,99468.97
2023-04-02T15:42:22.748Z,99469.91
2023-04-02T15:44:56.638Z,99466.38
2023-04-02T15:47:46.726Z,99472.88
2023-04-02T15:50:42.709Z,99465.41
2023-04-02T15:53:28.794Z,99453.25
2023-04-02T15:56:17.006Z,99461.47
2023-04-02T15:58:55.420Z,99468.88
2023-04-02T16:01:51.636Z,99465.97
2023-04-02T16:04:21.026Z,99463.91
2023-04-02T16:07:05.910Z,99460.38
2023-04-02T16:10:05.026Z,99462.75
2023-04-02T16:12:34.941Z,99464.53
2023-04-02T16:15:16.763Z,99464.47
2023-04-02T16:17:53.954Z,99464.16
2023-04-02T16:20:31.505Z,99469.63
2023-04-02T16:23:13.286Z,99467.00
2023-04-02T16:26:17.438Z,99470.72
2023-04-02T16:29:33.517Z,99471.34
2023-04-02T16:32:32.049Z,99477.69
2023-04-02T16:38:53.781Z,99492.56
2023-04-02T16:41:57.399Z,99504.25
2023-04-02T16:44:45.561Z,99513.78
2023-04-02T16:47:42.825Z,99519.31
2023-04-02T16:50:38.444Z,99513.31
2023-04-02T16:53:41.366Z,99512.53
2023-04-02T16:56:42.953Z,99504.19
2023-04-02T16:59:43.505Z,99512.09
2023-04-02T17:02:32.915Z,99516.13
2023-04-02T17:05:09.762Z,99509.47
2023-04-02T17:07:42.150Z,99511.25
2023-04-02T17:10:46.300Z,99511.34
2023-04-02T17:13:27.171Z,99521.47
2023-04-02T17:16:02.837Z,99517.66
2023-04-02T17:18:31.043Z,99525.94
2023-04-02T17:21:03.799Z,99526.66
2023-04-02T17:23:54.854Z,99529.91
2023-04-02T17:26:28.715Z,99534.53
2023-04-02T17:28:58.770Z,99544.16
2023-04-02T17:31:28.807Z,99549.66
2023-04-02T17:33:55.536Z,99552.13
2023-04-02T17:36:40.180Z,99564.06
2023-04-02T17:39:25.030Z,99563.09
2023-04-02T17:42:19.516Z,99561.44
2023-04-02T17:45:38.913Z,99561.63
2023-04-02T17:48:34.283Z,99569.19
2023-04-02T17:51:12.752Z,99573.16
2023-04-02T17:53:45.007Z,99575.63
2023-04-02T17:56:14.668Z,99580.88
2023-04-02T17:58:59.626Z,99585.16
2023-04-02T18:01:29.000Z,99590.13
2023-04-02T18:03:58.395Z,99587.22
2023-04-02T18:06:44.830Z,99599.00
2023-04-02T18:09:44.276Z,99593.22
2023-04-02T18:12:20.315Z,99607.81
2023-04-02T18:15:11.388Z,99614.41
2023-04-02T18:17:52.486Z,99619.66
2023-04-02T18:20:22.233Z,99617.94
2023-04-02T18:23:22.216Z,99620.09
2023-04-02T18:25:57.931Z,99626.53
2023-04-02T18:28:37.573Z,99640.91
2023-04-02T18:31:13.345Z,99640.97
2023-04-02T18:34:02.115Z,99643.38
2023-04-02T18:36:55.418Z,99637.66
2023-04-02T18:39:45.167Z,99645.25
2023-04-02T18:42:42.530Z,99650.97
2023-04-02T18:45:25.070Z,99650.34
2023-04-02T18:48:10.178Z,99658.16
2023-04-02T18:50:38.610Z,99649.00
2023-04-02T18:53:19.678Z,99654.47
2023-04-02T18:55:59.154Z,99663.97
2023-04-02T18:58:34.052Z,99669.91
2023-04-02T19:01:01.384Z,99666.34
2023-04-02T19:03:33.015Z,99674.13
2023-04-02T19:06:12.767Z,99676.09
2023-04-02T19:08:47.135Z,99679.22
2023-04-02T19:11:20.482Z,99682.47
2023-04-02T19:13:47.109Z,99686.22
2023-04-02T19:16:39.034Z,99683.63
2023-04-02T19:19:11.584Z,99696.56
2023-04-02T19:22:01.977Z,99697.72
2023-04-02T19:24:43.686Z,99704.41
2023-04-02T19:27:36.791Z,99702.16
2023-04-02T19:30:18.756Z,99701.34
2023-04-02T19:32:48.397Z,99708.34
2023-04-02T19:35:52.191Z,99711.38
2023-04-02T19:38:48.345Z,99714.16
2023-04-02T19:41:32.832Z,99717.94
2023-04-02T19:43:59.714Z,99714.88
2023-04-02T19:46:26.846Z,99729.66
2023-04-02T19:48:53.460Z,99723.28
2023-04-02T19:51:20.128Z,99733.88
2023-04-02T19:53:46.779Z,99738.13
2023-04-02T19:56:13.500Z,99741.44
2023-04-02T19:58:40.117Z,99747.09
2023-04-02T20:01:06.773Z,99749.31
2023-04-02T20:03:33.536Z,99752.97
2023-04-02T20:06:00.317Z,99768.41
2023-04-02T20:08:27.919Z,99766.34
2023-04-02T20:10:55.071Z,99768.41
2023-04-02T20:13:21.772Z,99770.53
2023-04-02T20:15:48.520Z,99769.72
2023-04-02T20:18:15.218Z,99773.47
2023-04-02T20:20:42.006Z,99778.28
2023-04-02T20:23:09.011Z,99783.72
2023-04-02T20:25:35.658Z,99790.88
2023-04-02T20:28:02.357Z,99788.75
2023-04-02T20:30:29.035Z,99792.81
2023-04-02T20:32:58.543Z,99800.25
2023-04-02T20:35:25.351Z,99806.69
2023-04-02T20:37:52.197Z,99811.50
2023-04-02T20:40:18.844Z,99818.63
2023-04-02T20:42:45.543Z,99807.13
2023-04-02T20:45:12.190Z,99820.97
2023-04-02T20:47:38.823Z,99829.97
2023-04-02T20:50:05.994Z,99826.53
2023-04-02T20:52:33.240Z,99827.47
2023-04-02T20:55:00.054Z,99833.50
2023-04-02T20:57:29.499Z,99831.66
2023-04-02T20:59:56.256Z,99837.34
2023-04-02T21:02:22.909Z,99842.44
2023-04-02T21:04:49.536Z,99837.25
2023-04-02T21:07:16.169Z,99844.81
2023-04-02T21:09:42.811Z,99846.03
2023-04-02T21:12:09.452Z,99847.31
2023-04-02T21:14:36.099Z,99854.34
2023-04-02T21:17:03.266Z,99855.13
2023-04-02T21:19:29.855Z,99863.38
2023-04-02T21:21:56.430Z,99862.22
2023-04-02T21:24:23.047Z,99863.13
2023-04-02T21:26:50.441Z,99864.38
2023-04-02T21:29:17.255Z,99872.63
2023-04-02T21:31:43.985Z,99871.97
2023-04-02T21:34:14.569Z,99880.06
2023-04-02T21:36:44.467Z,99876.91
2023-04-02T21:39:16.821Z,99877.06
2023-04-02T21:41:45.091Z,99878.41
2023-04-02T21:44:17.007Z,99882.25
2023-04-02T21:46:44.496Z,99889.94
2023-04-02T21:49:13.576Z,99895.19
2023-04-02T21:51:41.938Z,99894.34
2023-04-02T21:54:08.904Z,99900.28
2023-04-02T21:56:37.835Z,99897.88
2023-04-02T21:59:05.766Z,99895.81
2023-04-02T22:01:38.606Z,99905.91
2023-04-02T22:04:07.718Z,99910.53
2023-04-02T22:06:40.209Z,99910.81
2023-04-02T22:09:13.626Z,99913.97
2023-04-02T22:11:44.653Z,99911.78
2023-04-02T22:14:11.494Z,99916.25
2023-04-02T22:16:38.398Z,99923.69
2023-04-02T22:19:08.189Z,99925.78
2023-04-02T22:21:36.065Z,99925.91
2023-04-02T22:24:06.457Z,99924.94
2023-04-02T22:26:33.651Z,99933.66
2023-04-02T22:29:00.991Z,99929.28
2023-04-02T22:31:29.756Z,99935.31
2023-04-02T22:33:57.684Z,99940.44
2023-04-02T22:36:26.449Z,99943.44
2023-04-02T22:38:53.059Z,99944.47
2023-04-02T22:41:22.216Z,99948.34
2023-04-02T22:43:49.474Z,99947.22
2023-04-02T22:46:18.693Z,99947.69
2023-04-02T22:48:46.874Z,99946.53
2023-04-02T22:51:15.599Z,99948.06
2023-04-02T22:53:42.341Z,99951.53
2023-04-02T22:56:18.451Z,99952.25
2023-04-02T22:58:45.532Z,99963.44
2023-04-02T23:01:25.295Z,99950.34
2023-04-02T23:03:55.765Z,99954.81
2023-04-02T23:06:23.946Z,99954.34
2023-04-02T23:08:51.208Z,99960.50
2023-04-02T23:11:20.993Z,99965.50
2023-04-02T23:13:49.422Z,99967.13
2023-04-02T23:16:17.275Z,99966.66
2023-04-02T23:18:45.642Z,99965.31
2023-04-02T23:21:12.245Z,99973.97
2023-04-02T23:23:38.948Z,99985.03
2023-04-02T23:26:09.382Z,99984.31
2023-04-02T23:28:37.218Z,99983.41
2023-04-02T23:31:05.885Z,99993.47
2023-04-02T23:33:32.741Z,99992.13
2023-04-02T23:35:59.441Z,99993.94
2023-04-02T23:38:26.993Z,99993.47
2023-04-02T23:40:53.670Z,99993.59
2023-04-02T23:43:20.326Z,99999.94
2023-04-02T23:45:48.665Z,99993.19
2023-04-02T23:48:16.400Z,99994.81
2023-04-02T23:50:44.916Z,99992.97
2023-04-02T23:53:12.538Z,99990.53
2023-04-02T23:55:40.279Z,99986.03
2023-04-02T23:58:07.173Z,99993.94
